createdAt,value
2019-04-25T00:01:52.377Z,97265.00
2019-04-25T00:04:19.063Z,97257.43
2019-04-25T00:06:45.637Z,97255.56
2019-04-25T00:09:12.283Z,97259.56
2019-04-25T00:11:39.890Z,97270.69
2019-04-25T00:14:06.548Z,97268.98
2019-04-25T00:16:36.918Z,97267.59
2019-04-25T00:19:03.775Z,97268.25
2019-04-25T00:21:32.051Z,97264.82
2019-04-25T00:24:02.630Z,97250.85
2019-04-25T00:26:32.683Z,97247.84
2019-04-25T00:28:59.036Z,97240.39
2019-04-25T00:31:31.885Z,97249.43
2019-04-25T00:33:59.183Z,97252.32
2019-04-25T00:36:25.562Z,97251.00
2019-04-25T00:38:54.312Z,97257.50
2019-04-25T00:41:23.689Z,97248.14
2019-04-25T00:43:53.606Z,97242.94
2019-04-25T00:46:22.577Z,97245.83
2019-04-25T00:48:52.586Z,97263.64
2019-04-25T00:51:19.542Z,97263.11
2019-04-25T00:53:48.151Z,97264.25
2019-04-25T00:56:15.404Z,97264.89
2019-04-25T00:58:43.965Z,97263.88
2019-04-25T01:01:15.105Z,97262.78
2019-04-25T01:03:45.301Z,97272.66
2019-04-25T01:06:13.224Z,97271.77
2019-04-25T01:08:41.422Z,97272.02
2019-04-25T01:11:11.539Z,97272.67
2019-04-25T01:13:37.916Z,97269.13
2019-04-25T01:16:05.181Z,97265.36
2019-04-25T01:18:33.597Z,97277.19
2019-04-25T01:21:05.146Z,97277.05
2019-04-25T01:23:33.555Z,97269.27
2019-04-25T01:26:00.606Z,97278.34
2019-04-25T01:28:27.291Z,97277.32
2019-04-25T01:30:56.802Z,97277.70
2019-04-25T01:33:23.553Z,97276.45
2019-04-25T01:35:54.283Z,97281.05
2019-04-25T01:38:20.842Z,97284.58
2019-04-25T01:40:49.425Z,97288.91
2019-04-25T01:43:16.364Z,97293.00
2019-04-25T01:45:44.264Z,97282.08
2019-04-25T01:48:13.638Z,97281.49
2019-04-25T01:50:39.510Z,97274.03
2019-04-25T01:53:08.870Z,97277.77
2019-04-25T01:55:37.575Z,97272.61
2019-04-25T01:58:05.087Z,97267.05
2019-04-25T02:00:35.132Z,97265.44
2019-04-25T02:03:04.348Z,97272.23
2019-04-25T02:05:31.719Z,97276.05
2019-04-25T02:08:00.620Z,97271.28
2019-04-25T02:10:27.687Z,97276.62
2019-04-25T02:12:58.086Z,97273.48
2019-04-25T02:15:26.917Z,97277.56
2019-04-25T02:17:57.168Z,97284.83
2019-04-25T02:20:24.370Z,97276.08
2019-04-25T02:22:52.251Z,97266.59
2019-04-25T02:25:20.153Z,97269.88
2019-04-25T02:27:46.756Z,97262.61
2019-04-25T02:30:15.816Z,97266.16
2019-04-25T02:32:44.409Z,97263.70
2019-04-25T02:35:14.205Z,97269.89
2019-04-25T02:37:45.243Z,97268.44
2019-04-25T02:40:13.981Z,97266.95
2019-04-25T02:42:44.256Z,97267.11
2019-04-25T02:45:16.264Z,97265.83
2019-04-25T02:47:44.121Z,97264.23
2019-04-25T02:50:09.946Z,97265.89
2019-04-25T02:52:40.609Z,97257.78
2019-04-25T02:55:10.810Z,97261.39
2019-04-25T02:57:38.340Z,97256.59
2019-04-25T03:00:08.756Z,97262.08
2019-04-25T03:02:37.036Z,97263.08
2019-04-25T03:05:09.249Z,97253.44
2019-04-25T03:07:36.095Z,97255.86
2019-04-25T03:10:06.212Z,97271.80
2019-04-25T03:12:36.311Z,97270.56
2019-04-25T03:15:05.436Z,97268.43
2019-04-25T03:17:34.261Z,97270.06
2019-04-25T03:20:06.667Z,97278.23
2019-04-25T03:22:35.234Z,97280.45
2019-04-25T03:25:06.785Z,97284.77
2019-04-25T03:27:33.931Z,97289.75
2019-04-25T03:30:04.455Z,97292.71
2019-04-25T03:32:31.464Z,97297.11
2019-04-25T03:34:58.137Z,97296.22
2019-04-25T03:37:26.625Z,97302.31
2019-04-25T03:39:57.733Z,97295.92
2019-04-25T03:42:30.414Z,97295.02
2019-04-25T03:44:56.990Z,97300.27
2019-04-25T03:47:27.213Z,97304.65
2019-04-25T03:49:57.184Z,97296.08
2019-04-25T03:52:30.268Z,97290.47
2019-04-25T03:54:59.216Z,97290.73
2019-04-25T03:57:28.170Z,97299.45
2019-04-25T03:59:56.898Z,97296.52
2019-04-25T04:02:25.129Z,97296.86
2019-04-25T04:04:53.756Z,97302.95
2019-04-25T04:07:24.320Z,97324.16
2019-04-25T04:09:51.172Z,97318.23
2019-04-25T04:12:18.579Z,97325.12
2019-04-25T04:14:47.336Z,97326.65
2019-04-25T04:17:16.228Z,97322.21
2019-04-25T04:19:45.781Z,97324.09
2019-04-25T04:22:16.268Z,97332.49
2019-04-25T04:24:46.065Z,97329.81
2019-04-25T04:27:16.730Z,97331.52
2019-04-25T04:29:45.892Z,97331.05
2019-04-25T04:32:16.313Z,97331.34
2019-04-25T04:34:45.788Z,97328.75
2019-04-25T04:37:16.260Z,97331.28
2019-04-25T04:39:47.057Z,97329.31
2019-04-25T04:42:17.918Z,97342.48
2019-04-25T04:44:49.180Z,97335.69
2019-04-25T04:47:18.535Z,97333.55
2019-04-25T04:49:46.417Z,97347.61
2019-04-25T04:52:16.759Z,97350.36
2019-04-25T04:54:44.749Z,97360.75
2019-04-25T04:57:23.123Z,97354.09
2019-04-25T04:59:43.865Z,97351.92
2019-04-25T05:02:09.312Z,97352.64
2019-04-25T05:04:35.908Z,97350.77
2019-04-25T05:07:08.696Z,97354.88
2019-04-25T05:09:35.476Z,97351.94
2019-04-25T05:12:04.377Z,97357.86
2019-04-25T05:14:33.696Z,97359.00
2019-04-25T05:17:04.350Z,97354.65
2019-04-25T05:19:30.910Z,97359.38
2019-04-25T05:21:59.966Z,97371.68
2019-04-25T05:24:34.789Z,97364.76
2019-04-25T05:26:59.582Z,97373.78
2019-04-25T05:29:29.275Z,97373.59
2019-04-25T05:31:57.897Z,97372.66
2019-04-25T05:34:25.819Z,97370.23
2019-04-25T05:36:53.869Z,97357.63
2019-04-25T05:39:20.667Z,97361.30
2019-04-25T05:41:47.313Z,97366.59
2019-04-25T05:44:15.784Z,97359.97
2019-04-25T05:46:43.759Z,97374.16
2019-04-25T05:49:13.745Z,97368.83
2019-04-25T05:51:40.911Z,97374.87
2019-04-25T05:54:10.168Z,97369.16
2019-04-25T05:56:36.742Z,97364.72
2019-04-25T05:59:05.476Z,97368.18
2019-04-25T06:01:32.192Z,97362.72
2019-04-25T06:04:01.269Z,97363.33
2019-04-25T06:06:30.349Z,97373.43
2019-04-25T06:08:56.959Z,97365.56
2019-04-25T06:11:23.964Z,97373.99
2019-04-25T06:13:55.049Z,97371.62
2019-04-25T06:16:27.055Z,97378.23
2019-04-25T06:18:54.934Z,97366.74
2019-04-25T06:21:23.591Z,97381.27
2019-04-25T06:23:52.269Z,97362.47
2019-04-25T06:26:29.937Z,97364.77
2019-04-25T06:28:53.693Z,97368.03
2019-04-25T06:31:15.921Z,97366.55
2019-04-25T06:33:44.303Z,97360.89
2019-04-25T06:36:14.044Z,97362.84
2019-04-25T06:38:40.651Z,97362.67
2019-04-25T06:41:07.333Z,97361.86
2019-04-25T06:43:37.503Z,97369.88
2019-04-25T06:46:04.335Z,97366.86
2019-04-25T06:48:33.562Z,97368.76
2019-04-25T06:51:06.530Z,97365.42
2019-04-25T06:53:35.493Z,97360.12
2019-04-25T06:56:05.456Z,97358.30
2019-04-25T06:58:36.138Z,97351.89
2019-04-25T07:01:03.409Z,97359.41
2019-04-25T07:03:30.046Z,97348.66
2019-04-25T07:05:59.713Z,97349.41
2019-04-25T07:08:31.605Z,97349.72
2019-04-25T07:11:03.899Z,97355.13
2019-04-25T07:13:30.404Z,97351.03
2019-04-25T07:15:57.236Z,97346.74
2019-04-25T07:18:30.262Z,97348.81
2019-04-25T07:20:55.573Z,97353.15
2019-04-25T07:23:23.659Z,97352.84
2019-04-25T07:25:50.904Z,97346.81
2019-04-25T07:28:24.333Z,97347.61
2019-04-25T07:30:51.644Z,97341.77
2019-04-25T07:33:15.774Z,97341.14
2019-04-25T07:35:43.447Z,97339.10
2019-04-25T07:38:14.141Z,97333.37
2019-04-25T07:40:41.008Z,97340.11
2019-04-25T07:43:11.202Z,97344.67
2019-04-25T07:45:41.476Z,97348.94
2019-04-25T07:50:53.714Z,97345.72
2019-04-25T07:53:24.025Z,97350.00
2019-04-25T07:55:51.201Z,97341.73
2019-04-25T07:58:34.084Z,97343.79
2019-04-25T08:00:53.980Z,97356.66
2019-04-25T08:03:20.811Z,97340.91
2019-04-25T08:05:48.878Z,97343.16
2019-04-25T08:08:19.332Z,97347.23
2019-04-25T08:10:47.261Z,97341.48
2019-04-25T08:13:14.653Z,97342.41
2019-04-25T08:15:43.667Z,97339.80
2019-04-25T08:18:11.657Z,97337.72
2019-04-25T08:20:40.893Z,97341.55
2019-04-25T08:23:11.808Z,97349.38
2019-04-25T08:25:40.791Z,97348.35
2019-04-25T08:28:08.734Z,97348.25
2019-04-25T08:30:38.230Z,97347.14
2019-04-25T08:33:07.556Z,97350.12
2019-04-25T08:35:36.543Z,97354.70
2019-04-25T08:38:05.756Z,97359.47
2019-04-25T08:40:35.802Z,97347.85
2019-04-25T08:43:04.926Z,97354.89
2019-04-25T08:45:37.032Z,97350.09
2019-04-25T08:48:06.886Z,97343.41
2019-04-25T08:50:39.303Z,97348.95
2019-04-25T08:53:04.768Z,97349.23
2019-04-25T08:55:32.996Z,97348.25
2019-04-25T08:58:01.409Z,97350.93
2019-04-25T09:00:28.273Z,97354.13
2019-04-25T09:02:55.366Z,97349.34
2019-04-25T09:05:36.033Z,97345.25
2019-04-25T09:08:04.177Z,97348.23
2019-04-25T09:10:31.272Z,97360.12
2019-04-25T09:12:57.861Z,97352.92
2019-04-25T09:15:27.106Z,97347.77
2019-04-25T09:17:54.895Z,97340.73
2019-04-25T09:20:24.210Z,97348.60
2019-04-25T09:22:51.283Z,97347.89
2019-04-25T09:25:26.788Z,97348.50
2019-04-25T09:27:55.488Z,97340.27
2019-04-25T09:30:25.117Z,97340.48
2019-04-25T09:32:54.297Z,97338.09
2019-04-25T09:35:25.656Z,97343.14
2019-04-25T09:37:55.519Z,97347.77
2019-04-25T09:40:24.897Z,97337.28
2019-04-25T09:42:54.341Z,97339.33
2019-04-25T09:45:26.145Z,97333.78
2019-04-25T09:47:54.532Z,97333.83
2019-04-25T09:50:21.478Z,97329.03
2019-04-25T09:52:49.850Z,97328.70
2019-04-25T09:55:16.428Z,97329.44
2019-04-25T09:57:44.519Z,97328.97
2019-04-25T10:00:13.258Z,97323.13
2019-04-25T10:02:40.306Z,97314.53
2019-04-25T10:05:07.710Z,97323.64
2019-04-25T10:07:40.548Z,97318.13
2019-04-25T10:10:08.655Z,97318.17
2019-04-25T10:12:39.008Z,97316.89
2019-04-25T10:15:05.895Z,97308.94
2019-04-25T10:17:37.722Z,97320.91
2019-04-25T10:20:08.987Z,97306.64
2019-04-25T10:22:35.818Z,97303.98
2019-04-25T10:25:04.752Z,97306.98
2019-04-25T10:30:20.711Z,97305.34
2019-04-25T10:32:48.723Z,97311.45
2019-04-25T10:35:15.554Z,97296.94
2019-04-25T10:37:46.562Z,97301.63
2019-04-25T10:40:16.427Z,97301.88
2019-04-25T10:42:46.456Z,97299.25
2019-04-25T10:45:23.202Z,97285.92
2019-04-25T10:47:45.316Z,97300.38
2019-04-25T10:50:13.535Z,97294.73
2019-04-25T10:52:44.505Z,97288.19
2019-04-25T10:55:11.761Z,97288.20
2019-04-25T10:57:39.681Z,97289.47
2019-04-25T11:00:09.488Z,97290.06
2019-04-25T11:02:37.324Z,97286.93
2019-04-25T11:05:04.495Z,97285.36
2019-04-25T11:07:34.065Z,97286.89
2019-04-25T11:10:04.928Z,97282.44
2019-04-25T11:12:33.792Z,97282.86
2019-04-25T11:15:00.955Z,97280.19
2019-04-25T11:17:33.886Z,97274.13
2019-04-25T11:20:03.605Z,97273.33
2019-04-25T11:22:29.239Z,97268.20
2019-04-25T11:24:56.421Z,97265.98
2019-04-25T11:27:25.046Z,97263.15
2019-04-25T11:30:10.492Z,97266.19
2019-04-25T11:32:26.731Z,97268.68
2019-04-25T11:34:57.270Z,97264.98
2019-04-25T11:37:23.916Z,97266.72
2019-04-25T11:42:39.108Z,97262.09
2019-04-25T11:45:08.829Z,97276.39
2019-04-25T11:47:39.396Z,97265.13
2019-04-25T11:50:22.258Z,97264.84
2019-04-25T11:52:53.082Z,97259.38
2019-04-25T11:55:21.800Z,97266.80
2019-04-25T11:57:54.706Z,97270.17
2019-04-25T12:00:24.021Z,97272.77
2019-04-25T12:02:52.354Z,97262.83
2019-04-25T12:05:23.479Z,97271.36
2019-04-25T12:07:55.133Z,97261.31
2019-04-25T12:10:30.536Z,97263.00
2019-04-25T12:12:57.868Z,97260.27
2019-04-25T12:15:24.762Z,97264.96
2019-04-25T12:17:56.047Z,97266.86
2019-04-25T12:20:22.964Z,97260.75
2019-04-25T12:22:51.575Z,97268.52
2019-04-25T12:25:19.959Z,97266.69
2019-04-25T12:27:49.954Z,97252.59
2019-04-25T12:30:19.759Z,97248.79
2019-04-25T12:32:47.930Z,97247.95
2019-04-25T12:35:14.983Z,97245.08
2019-04-25T12:37:45.646Z,97238.05
2019-04-25T12:40:14.044Z,97240.95
2019-04-25T12:42:42.195Z,97238.89
2019-04-25T12:45:09.384Z,97238.02
2019-04-25T12:47:38.802Z,97224.42
2019-04-25T12:50:09.363Z,97227.06
2019-04-25T12:52:37.554Z,97233.02
2019-04-25T12:55:05.333Z,97232.33
2019-04-25T12:57:35.075Z,97226.30
2019-04-25T13:00:04.058Z,97223.45
2019-04-25T13:02:36.348Z,97215.94
2019-04-25T13:05:01.873Z,97212.83
2019-04-25T13:07:29.099Z,97203.13
2019-04-25T13:09:57.206Z,97199.48
2019-04-25T13:12:26.778Z,97202.80
2019-04-25T13:14:54.547Z,97203.03
2019-04-25T13:17:24.204Z,97196.08
2019-04-25T13:19:51.387Z,97190.15
2019-04-25T13:22:20.223Z,97180.77
2019-04-25T13:24:49.538Z,97174.41
2019-04-25T13:27:18.789Z,97175.47
2019-04-25T13:29:47.856Z,97176.52
2019-04-25T13:32:14.677Z,97168.75
2019-04-25T13:34:41.554Z,97162.73
2019-04-25T13:37:08.950Z,97160.83
2019-04-25T13:39:37.871Z,97160.43
2019-04-25T13:42:07.961Z,97156.70
2019-04-25T13:44:36.088Z,97157.09
2019-04-25T13:47:04.974Z,97161.66
2019-04-25T13:49:37.381Z,97151.33
2019-04-25T13:52:05.890Z,97151.05
2019-04-25T13:54:50.366Z,97143.66
2019-04-25T13:57:18.235Z,97149.42
2019-04-25T13:59:49.394Z,97147.16
2019-04-25T14:02:20.271Z,97146.27
2019-04-25T14:04:48.756Z,97140.98
2019-04-25T14:07:19.170Z,97149.41
2019-04-25T14:09:48.696Z,97145.03
2019-04-25T14:12:17.148Z,97142.56
2019-04-25T14:14:44.346Z,97147.28
2019-04-25T14:17:13.807Z,97130.53
2019-04-25T14:19:40.599Z,97132.50
2019-04-25T14:22:10.664Z,97131.55
2019-04-25T14:24:39.435Z,97122.98
2019-04-25T14:27:06.594Z,97131.39
2019-04-25T14:29:35.615Z,97132.25
2019-04-25T14:32:06.209Z,97122.08
2019-04-25T14:34:33.785Z,97127.64
2019-04-25T14:37:03.066Z,97117.24
2019-04-25T14:39:32.302Z,97115.91
2019-04-25T14:42:00.128Z,97124.36
2019-04-25T14:44:31.259Z,97125.74
2019-04-25T14:46:58.590Z,97119.19
2019-04-25T14:49:26.304Z,97112.86
2019-04-25T14:54:26.375Z,97136.37
2019-04-25T14:56:53.519Z,97112.30
2019-04-25T14:59:24.456Z,97116.69
2019-04-25T15:01:51.715Z,97117.81
2019-04-25T15:04:19.606Z,97120.67
2019-04-25T15:06:48.851Z,97132.06
2019-04-25T15:09:17.677Z,97122.56
2019-04-25T15:11:44.357Z,97131.25
2019-04-25T15:14:13.294Z,97131.98
2019-04-25T15:16:42.486Z,97148.09
2019-04-25T15:19:09.350Z,97135.89
2019-04-25T15:21:38.907Z,97130.13
2019-04-25T15:24:08.375Z,97130.02
2019-04-25T15:26:35.597Z,97121.83
2019-04-25T15:29:03.521Z,97120.83
2019-04-25T15:31:32.024Z,97116.27
2019-04-25T15:34:02.241Z,97118.63
2019-04-25T15:36:28.512Z,97116.23
2019-04-25T15:38:58.774Z,97117.96
2019-04-25T15:41:28.317Z,97113.01
2019-04-25T15:43:58.050Z,97112.91
2019-04-25T15:46:30.177Z,97127.35
2019-04-25T15:49:00.472Z,97112.11
2019-04-25T15:51:30.467Z,97108.33
2019-04-25T15:53:58.438Z,97105.27
2019-04-25T15:56:25.685Z,97107.14
2019-04-25T15:58:56.600Z,97113.66
2019-04-25T16:01:26.488Z,97130.63
2019-04-25T16:03:53.325Z,97099.80
2019-04-25T16:06:23.826Z,97100.47
2019-04-25T16:08:52.198Z,97104.23
2019-04-25T16:11:19.376Z,97122.41
2019-04-25T16:13:48.498Z,97115.62
2019-04-25T16:16:15.604Z,97133.18
2019-04-25T16:18:44.610Z,97105.46
2019-04-25T16:21:14.850Z,97138.41
2019-04-25T16:23:44.998Z,97135.81
2019-04-25T16:26:11.808Z,97137.66
2019-04-25T16:28:40.006Z,97133.94
2019-04-25T16:31:08.101Z,97137.55
2019-04-25T16:33:35.665Z,97140.28
2019-04-25T16:36:21.956Z,97151.92
2019-04-25T16:38:50.087Z,97149.81
2019-04-25T16:41:18.801Z,97154.98
2019-04-25T16:43:48.141Z,97149.84
2019-04-25T16:46:14.986Z,97157.61
2019-04-25T16:48:44.475Z,97156.84
2019-04-25T16:51:18.158Z,97163.38
2019-04-25T16:53:45.024Z,97166.42
2019-04-25T16:56:16.455Z,97161.15
2019-04-25T16:58:45.461Z,97181.81
2019-04-25T17:01:15.060Z,97170.02
2019-04-25T17:03:42.005Z,97179.67
2019-04-25T17:06:10.712Z,97159.52
2019-04-25T17:08:40.300Z,97172.41
2019-04-25T17:11:07.184Z,97177.16
2019-04-25T17:13:38.015Z,97191.58
2019-04-25T17:16:06.357Z,97184.96
2019-04-25T17:18:36.540Z,97205.88
2019-04-25T17:21:05.818Z,97203.41
2019-04-25T17:23:34.787Z,97207.30
2019-04-25T17:26:01.671Z,97216.04
2019-04-25T17:28:30.318Z,97217.27
2019-04-25T17:30:58.421Z,97209.99
2019-04-25T17:33:28.953Z,97213.61
2019-04-25T17:35:55.523Z,97229.50
2019-04-25T17:38:23.619Z,97224.02
2019-04-25T17:40:50.887Z,97221.77
2019-04-25T17:43:19.863Z,97226.30
2019-04-25T17:45:47.515Z,97213.31
2019-04-25T17:48:16.699Z,97218.27
2019-04-25T17:50:45.935Z,97217.42
2019-04-25T17:53:13.113Z,97211.71
2019-04-25T17:55:43.827Z,97212.95
2019-04-25T17:58:12.944Z,97208.71
2019-04-25T18:00:39.710Z,97215.33
2019-04-25T18:03:09.144Z,97205.38
2019-04-25T18:05:39.267Z,97197.79
2019-04-25T18:08:10.522Z,97203.20
2019-04-25T18:10:41.923Z,97195.86
2019-04-25T18:13:10.531Z,97195.52
2019-04-25T18:15:41.726Z,97207.12
2019-04-25T18:18:11.356Z,97213.02
2019-04-25T18:20:43.142Z,97212.94
2019-04-25T18:23:10.021Z,97223.08
2019-04-25T18:25:39.129Z,97220.53
2019-04-25T18:28:07.845Z,97215.89
2019-04-25T18:30:36.936Z,97230.16
2019-04-25T18:33:10.579Z,97237.55
2019-04-25T18:35:39.170Z,97244.47
2019-04-25T18:38:07.344Z,97238.45
2019-04-25T18:43:14.929Z,97249.87
2019-04-25T18:45:52.330Z,97259.19
2019-04-25T18:48:29.572Z,97254.08
2019-04-25T18:50:59.743Z,97268.68
2019-04-25T18:53:27.492Z,97260.40
2019-04-25T18:55:56.607Z,97264.03
2019-04-25T18:58:25.686Z,97268.34
2019-04-25T19:00:52.818Z,97257.73
2019-04-25T19:03:25.911Z,97260.95
2019-04-25T19:05:51.572Z,97269.27
2019-04-25T19:08:21.426Z,97265.40
2019-04-25T19:10:48.493Z,97280.34
2019-04-25T19:13:18.744Z,97281.52
2019-04-25T19:15:49.599Z,97288.75
2019-04-25T19:18:17.323Z,97294.39
2019-04-25T19:20:46.034Z,97300.19
2019-04-25T19:23:16.690Z,97300.10
2019-04-25T19:25:48.551Z,97293.78
2019-04-25T19:31:07.219Z,97295.75
2019-04-25T19:33:35.800Z,97304.38
2019-04-25T19:36:03.015Z,97302.25
2019-04-25T19:38:33.349Z,97300.16
2019-04-25T19:41:02.543Z,97303.37
2019-04-25T19:43:34.222Z,97298.00
2019-04-25T19:46:06.505Z,97296.16
2019-04-25T19:48:34.159Z,97301.05
2019-04-25T19:51:02.345Z,97294.93
2019-04-25T19:56:15.967Z,97304.64
2019-04-25T19:58:45.004Z,97300.92
2019-04-25T20:01:15.182Z,97311.97
2019-04-25T20:03:54.990Z,97307.48
2019-04-25T20:06:15.017Z,97300.98
2019-04-25T20:08:42.465Z,97300.19
2019-04-25T20:11:18.284Z,97303.66
2019-04-25T20:13:49.243Z,97300.15
2019-04-25T20:16:21.371Z,97301.58
2019-04-25T20:18:51.906Z,97309.22
2019-04-25T20:21:26.033Z,97311.09
2019-04-25T20:23:54.460Z,97304.70
2019-04-25T20:26:24.706Z,97310.14
2019-04-25T20:28:53.558Z,97301.55
2019-04-25T20:31:26.793Z,97307.55
2019-04-25T20:34:05.402Z,97306.49
2019-04-25T20:36:28.720Z,97310.22
2019-04-25T20:38:57.910Z,97305.14
2019-04-25T20:41:32.905Z,97308.09
2019-04-25T20:44:01.817Z,97303.01
2019-04-25T20:46:31.009Z,97305.16
2019-04-25T20:49:03.534Z,97308.38
2019-04-25T20:51:33.293Z,97314.84
2019-04-25T20:54:02.678Z,97318.58
2019-04-25T20:56:32.802Z,97317.78
2019-04-25T20:59:00.957Z,97327.47
2019-04-25T21:01:30.006Z,97312.20
2019-04-25T21:04:13.282Z,97321.06
2019-04-25T21:06:40.081Z,97328.83
2019-04-25T21:09:07.201Z,97332.31
2019-04-25T21:11:41.688Z,97335.27
2019-04-25T21:14:07.533Z,97332.57
2019-04-25T21:16:34.738Z,97322.38
2019-04-25T21:19:02.724Z,97327.47
2019-04-25T21:21:33.849Z,97321.31
2019-04-25T21:24:09.695Z,97328.52
2019-04-25T21:26:40.389Z,97320.17
2019-04-25T21:29:10.932Z,97331.99
2019-04-25T21:31:45.191Z,97322.89
2019-04-25T21:34:25.478Z,97320.69
2019-04-25T21:36:44.746Z,97320.72
2019-04-25T21:39:19.414Z,97321.50
2019-04-25T21:41:48.527Z,97326.60
2019-04-25T21:44:17.716Z,97326.77
2019-04-25T21:46:48.529Z,97324.63
2019-04-25T21:49:16.655Z,97324.30
2019-04-25T21:51:45.289Z,97328.59
2019-04-25T21:54:15.764Z,97317.30
2019-04-25T21:56:43.296Z,97316.75
2019-04-25T21:59:14.528Z,97318.95
2019-04-25T22:01:45.210Z,97317.28
2019-04-25T22:04:20.052Z,97312.27
2019-04-25T22:06:46.979Z,97319.20
2019-04-25T22:09:14.775Z,97326.61
2019-04-25T22:11:42.202Z,97325.81
2019-04-25T22:14:12.875Z,97325.02
2019-04-25T22:16:41.238Z,97319.34
2019-04-25T22:19:10.506Z,97332.66
2019-04-25T22:21:41.143Z,97324.33
2019-04-25T22:24:14.814Z,97329.20
2019-04-25T22:26:44.644Z,97318.66
2019-04-25T22:29:11.208Z,97323.24
2019-04-25T22:31:38.170Z,97326.68
2019-04-25T22:34:06.664Z,97324.80
2019-04-25T22:36:34.489Z,97319.69
2019-04-25T22:39:03.661Z,97315.41
2019-04-25T22:41:31.476Z,97315.80
2019-04-25T22:43:58.200Z,97311.25
2019-04-25T22:46:29.512Z,97316.05
2019-04-25T22:48:56.228Z,97319.79
2019-04-25T22:51:24.806Z,97315.91
2019-04-25T22:53:51.492Z,97324.30
2019-04-25T22:56:18.312Z,97329.14
2019-04-25T22:58:44.974Z,97321.23
2019-04-25T23:01:14.737Z,97320.83
2019-04-25T23:03:41.570Z,97322.86
2019-04-25T23:06:09.659Z,97318.20
2019-04-25T23:08:38.140Z,97314.66
2019-04-25T23:11:08.845Z,97315.07
2019-04-25T23:13:37.360Z,97308.93
2019-04-25T23:16:05.096Z,97311.30
2019-04-25T23:18:32.263Z,97310.08
2019-04-25T23:20:58.867Z,97306.73
2019-04-25T23:23:32.232Z,97307.53
2019-04-25T23:25:57.127Z,97309.91
2019-04-25T23:28:25.958Z,97303.67
2019-04-25T23:30:54.270Z,97290.53
2019-04-25T23:33:23.871Z,97298.95
2019-04-25T23:35:52.947Z,97295.52
2019-04-25T23:38:22.086Z,97296.97
2019-04-25T23:40:52.222Z,97306.81
2019-04-25T23:43:19.592Z,97299.28
2019-04-25T23:45:46.668Z,97307.11
2019-04-25T23:48:14.477Z,97304.44
2019-04-25T23:50:45.642Z,97303.64
2019-04-25T23:53:21.201Z,97297.94
2019-04-25T23:55:50.355Z,97297.56
2019-04-25T23:58:18.316Z,97291.89
